sensor_id;sensor_type;location;lat;lon;timestamp;P1;durP1;ratioP1;P2;durP2;ratioP2
75154;SDS011;63735;44.730;37.818;2023-04-10T00:00:08;17.88;;;10.77;;
75154;SDS011;63735;44.730;37.818;2023-04-10T00:02:35;20.75;;;10.57;;
75154;SDS011;63735;44.730;37.818;2023-04-10T00:05:04;22.73;;;12.85;;
75154;SDS011;63735;44.730;37.818;2023-04-10T00:07:31;17.05;;;9.25;;
75154;SDS011;63735;44.730;37.818;2023-04-10T00:09:57;16.40;;;9.43;;
75154;SDS011;63735;44.730;37.818;2023-04-10T00:12:23;20.02;;;12.80;;
75154;SDS011;63735;44.730;37.818;2023-04-10T00:14:50;16.52;;;10.20;;
75154;SDS011;63735;44.730;37.818;2023-04-10T00:17:16;18.00;;;10.57;;
75154;SDS011;63735;44.730;37.818;2023-04-10T00:19:42;14.32;;;9.15;;
75154;SDS011;63735;44.730;37.818;2023-04-10T00:22:08;19.75;;;11.60;;
75154;SDS011;63735;44.730;37.818;2023-04-10T00:24:34;17.90;;;10.23;;
75154;SDS011;63735;44.730;37.818;2023-04-10T00:27:00;18.90;;;8.80;;
75154;SDS011;63735;44.730;37.818;2023-04-10T00:29:26;16.95;;;8.70;;
75154;SDS011;63735;44.730;37.818;2023-04-10T00:31:52;16.52;;;8.82;;
75154;SDS011;63735;44.730;37.818;2023-04-10T00:34:18;17.33;;;9.20;;
75154;SDS011;63735;44.730;37.818;2023-04-10T00:36:44;19.60;;;11.23;;
75154;SDS011;63735;44.730;37.818;2023-04-10T00:39:12;18.83;;;12.77;;
75154;SDS011;63735;44.730;37.818;2023-04-10T00:41:38;19.60;;;11.60;;
75154;SDS011;63735;44.730;37.818;2023-04-10T00:44:05;18.10;;;11.25;;
75154;SDS011;63735;44.730;37.818;2023-04-10T00:46:31;17.27;;;9.00;;
75154;SDS011;63735;44.730;37.818;2023-04-10T00:48:57;16.52;;;11.13;;
75154;SDS011;63735;44.730;37.818;2023-04-10T00:51:23;19.42;;;12.10;;
75154;SDS011;63735;44.730;37.818;2023-04-10T00:53:50;16.25;;;9.65;;
75154;SDS011;63735;44.730;37.818;2023-04-10T00:56:17;16.80;;;11.10;;
75154;SDS011;63735;44.730;37.818;2023-04-10T00:58:43;16.08;;;7.93;;
75154;SDS011;63735;44.730;37.818;2023-04-10T01:01:10;16.40;;;8.23;;
75154;SDS011;63735;44.730;37.818;2023-04-10T01:03:37;18.50;;;11.73;;
75154;SDS011;63735;44.730;37.818;2023-04-10T01:06:07;17.17;;;9.52;;
75154;SDS011;63735;44.730;37.818;2023-04-10T01:09:07;17.08;;;10.02;;
75154;SDS011;63735;44.730;37.818;2023-04-10T01:11:52;15.25;;;9.10;;
75154;SDS011;63735;44.730;37.818;2023-04-10T01:14:32;16.42;;;10.68;;
75154;SDS011;63735;44.730;37.818;2023-04-10T01:20:24;14.43;;;8.43;;
75154;SDS011;63735;44.730;37.818;2023-04-10T01:31:41;12.80;;;7.22;;
75154;SDS011;63735;44.730;37.818;2023-04-10T01:34:15;14.38;;;7.15;;
75154;SDS011;63735;44.730;37.818;2023-04-10T01:36:48;13.63;;;8.40;;
75154;SDS011;63735;44.730;37.818;2023-04-10T01:39:18;15.75;;;9.52;;
75154;SDS011;63735;44.730;37.818;2023-04-10T01:41:47;17.40;;;11.02;;
75154;SDS011;63735;44.730;37.818;2023-04-10T01:44:17;15.82;;;8.80;;
75154;SDS011;63735;44.730;37.818;2023-04-10T01:46:51;16.13;;;9.70;;
75154;SDS011;63735;44.730;37.818;2023-04-10T01:49:18;16.00;;;8.77;;
75154;SDS011;63735;44.730;37.818;2023-04-10T01:51:46;18.38;;;11.00;;
75154;SDS011;63735;44.730;37.818;2023-04-10T01:54:13;17.70;;;10.68;;
75154;SDS011;63735;44.730;37.818;2023-04-10T01:56:41;22.67;;;9.63;;
75154;SDS011;63735;44.730;37.818;2023-04-10T01:59:14;20.45;;;13.70;;
75154;SDS011;63735;44.730;37.818;2023-04-10T02:01:40;17.33;;;11.73;;
75154;SDS011;63735;44.730;37.818;2023-04-10T02:04:07;17.10;;;10.45;;
75154;SDS011;63735;44.730;37.818;2023-04-10T02:09:30;20.17;;;11.93;;
75154;SDS011;63735;44.730;37.818;2023-04-10T02:12:05;21.38;;;13.40;;
75154;SDS011;63735;44.730;37.818;2023-04-10T02:14:35;24.80;;;16.33;;
75154;SDS011;63735;44.730;37.818;2023-04-10T02:17:06;23.10;;;14.50;;
75154;SDS011;63735;44.730;37.818;2023-04-10T02:19:34;23.17;;;13.82;;
75154;SDS011;63735;44.730;37.818;2023-04-10T02:22:02;22.77;;;13.70;;
75154;SDS011;63735;44.730;37.818;2023-04-10T02:24:32;24.25;;;13.63;;
75154;SDS011;63735;44.730;37.818;2023-04-10T02:26:59;21.02;;;11.82;;
75154;SDS011;63735;44.730;37.818;2023-04-10T02:29:26;23.20;;;11.60;;
75154;SDS011;63735;44.730;37.818;2023-04-10T02:31:52;21.25;;;12.07;;
75154;SDS011;63735;44.730;37.818;2023-04-10T02:34:18;20.67;;;12.65;;
75154;SDS011;63735;44.730;37.818;2023-04-10T02:36:44;18.10;;;10.23;;
75154;SDS011;63735;44.730;37.818;2023-04-10T02:39:11;19.95;;;12.20;;
75154;SDS011;63735;44.730;37.818;2023-04-10T02:41:45;20.05;;;13.05;;
75154;SDS011;63735;44.730;37.818;2023-04-10T02:44:12;19.20;;;11.18;;
75154;SDS011;63735;44.730;37.818;2023-04-10T02:46:38;19.38;;;13.30;;
75154;SDS011;63735;44.730;37.818;2023-04-10T02:49:06;19.67;;;10.23;;
75154;SDS011;63735;44.730;37.818;2023-04-10T02:51:35;19.10;;;10.32;;
75154;SDS011;63735;44.730;37.818;2023-04-10T02:54:02;18.80;;;9.27;;
75154;SDS011;63735;44.730;37.818;2023-04-10T02:56:32;17.25;;;9.25;;
75154;SDS011;63735;44.730;37.818;2023-04-10T02:58:59;19.42;;;12.02;;
75154;SDS011;63735;44.730;37.818;2023-04-10T03:01:26;18.27;;;13.30;;
75154;SDS011;63735;44.730;37.818;2023-04-10T03:03:54;15.50;;;9.98;;
75154;SDS011;63735;44.730;37.818;2023-04-10T03:06:25;16.20;;;8.07;;
75154;SDS011;63735;44.730;37.818;2023-04-10T03:08:53;15.07;;;8.43;;
75154;SDS011;63735;44.730;37.818;2023-04-10T03:11:19;15.35;;;8.75;;
75154;SDS011;63735;44.730;37.818;2023-04-10T03:13:45;15.52;;;8.98;;
75154;SDS011;63735;44.730;37.818;2023-04-10T03:16:14;13.60;;;8.10;;
75154;SDS011;63735;44.730;37.818;2023-04-10T03:18:42;14.50;;;8.48;;
75154;SDS011;63735;44.730;37.818;2023-04-10T03:21:08;12.45;;;6.72;;
75154;SDS011;63735;44.730;37.818;2023-04-10T03:23:34;14.07;;;8.55;;
75154;SDS011;63735;44.730;37.818;2023-04-10T03:26:01;13.65;;;6.10;;
75154;SDS011;63735;44.730;37.818;2023-04-10T03:28:34;13.15;;;7.68;;
75154;SDS011;63735;44.730;37.818;2023-04-10T03:31:01;11.80;;;7.22;;
75154;SDS011;63735;44.730;37.818;2023-04-10T03:33:32;13.13;;;8.20;;
75154;SDS011;63735;44.730;37.818;2023-04-10T03:35:58;11.10;;;6.50;;
75154;SDS011;63735;44.730;37.818;2023-04-10T03:38:25;12.63;;;6.63;;
75154;SDS011;63735;44.730;37.818;2023-04-10T03:40:51;10.40;;;6.97;;
75154;SDS011;63735;44.730;37.818;2023-04-10T03:43:21;9.75;;;6.20;;
75154;SDS011;63735;44.730;37.818;2023-04-10T03:45:47;11.68;;;6.65;;
75154;SDS011;63735;44.730;37.818;2023-04-10T03:48:14;9.57;;;5.50;;
75154;SDS011;63735;44.730;37.818;2023-04-10T03:50:43;9.52;;;5.55;;
75154;SDS011;63735;44.730;37.818;2023-04-10T03:53:09;9.27;;;5.63;;
75154;SDS011;63735;44.730;37.818;2023-04-10T03:55:36;8.20;;;5.65;;
75154;SDS011;63735;44.730;37.818;2023-04-10T03:58:04;7.78;;;5.00;;
75154;SDS011;63735;44.730;37.818;2023-04-10T04:00:30;10.07;;;6.57;;
75154;SDS011;63735;44.730;37.818;2023-04-10T04:03:06;10.40;;;6.47;;
75154;SDS011;63735;44.730;37.818;2023-04-10T04:05:50;10.15;;;5.82;;
75154;SDS011;63735;44.730;37.818;2023-04-10T04:08:25;8.68;;;5.45;;
75154;SDS011;63735;44.730;37.818;2023-04-10T04:11:09;8.40;;;4.95;;
75154;SDS011;63735;44.730;37.818;2023-04-10T04:13:54;9.32;;;5.35;;
75154;SDS011;63735;44.730;37.818;2023-04-10T04:16:42;8.38;;;4.93;;
75154;SDS011;63735;44.730;37.818;2023-04-10T04:19:24;6.65;;;4.85;;
75154;SDS011;63735;44.730;37.818;2023-04-10T04:22:19;9.77;;;5.57;;
75154;SDS011;63735;44.730;37.818;2023-04-10T04:24:58;20.25;;;5.65;;
75154;SDS011;63735;44.730;37.818;2023-04-10T04:27:47;8.45;;;4.63;;
75154;SDS011;63735;44.730;37.818;2023-04-10T04:30:32;6.43;;;4.88;;
75154;SDS011;63735;44.730;37.818;2023-04-10T04:33:17;6.93;;;3.88;;
75154;SDS011;63735;44.730;37.818;2023-04-10T04:36:09;7.15;;;4.15;;
75154;SDS011;63735;44.730;37.818;2023-04-10T04:39:01;12.60;;;4.55;;
75154;SDS011;63735;44.730;37.818;2023-04-10T04:41:35;6.00;;;4.40;;
75154;SDS011;63735;44.730;37.818;2023-04-10T04:44:04;7.65;;;5.28;;
75154;SDS011;63735;44.730;37.818;2023-04-10T04:46:58;6.78;;;4.28;;
75154;SDS011;63735;44.730;37.818;2023-04-10T04:49:27;8.38;;;5.30;;
75154;SDS011;63735;44.730;37.818;2023-04-10T04:52:11;7.55;;;4.78;;
75154;SDS011;63735;44.730;37.818;2023-04-10T04:54:41;7.82;;;4.70;;
75154;SDS011;63735;44.730;37.818;2023-04-10T04:57:27;7.53;;;4.47;;
75154;SDS011;63735;44.730;37.818;2023-04-10T05:00:13;7.60;;;4.88;;
75154;SDS011;63735;44.730;37.818;2023-04-10T05:02:45;7.05;;;4.60;;
75154;SDS011;63735;44.730;37.818;2023-04-10T05:05:40;6.70;;;4.40;;
75154;SDS011;63735;44.730;37.818;2023-04-10T05:08:27;8.38;;;4.45;;
75154;SDS011;63735;44.730;37.818;2023-04-10T05:11:23;8.02;;;4.35;;
75154;SDS011;63735;44.730;37.818;2023-04-10T05:14:15;5.97;;;4.20;;
75154;SDS011;63735;44.730;37.818;2023-04-10T05:17:10;7.00;;;4.35;;
75154;SDS011;63735;44.730;37.818;2023-04-10T05:19:42;6.53;;;3.88;;
75154;SDS011;63735;44.730;37.818;2023-04-10T05:22:30;5.68;;;3.83;;
75154;SDS011;63735;44.730;37.818;2023-04-10T05:25:31;6.07;;;4.40;;
75154;SDS011;63735;44.730;37.818;2023-04-10T05:28:24;6.88;;;4.88;;
75154;SDS011;63735;44.730;37.818;2023-04-10T05:31:13;6.78;;;3.50;;
75154;SDS011;63735;44.730;37.818;2023-04-10T05:34:05;5.93;;;3.38;;
75154;SDS011;63735;44.730;37.818;2023-04-10T05:36:50;5.65;;;3.85;;
75154;SDS011;63735;44.730;37.818;2023-04-10T05:39:22;4.32;;;3.45;;
75154;SDS011;63735;44.730;37.818;2023-04-10T05:41:54;7.95;;;3.45;;
75154;SDS011;63735;44.730;37.818;2023-04-10T05:44:44;7.70;;;3.92;;
75154;SDS011;63735;44.730;37.818;2023-04-10T05:47:32;6.45;;;4.03;;
75154;SDS011;63735;44.730;37.818;2023-04-10T05:50:24;7.60;;;4.05;;
75154;SDS011;63735;44.730;37.818;2023-04-10T05:53:17;5.95;;;3.17;;
75154;SDS011;63735;44.730;37.818;2023-04-10T05:56:03;7.38;;;3.55;;
75154;SDS011;63735;44.730;37.818;2023-04-10T05:58:40;4.82;;;3.30;;
75154;SDS011;63735;44.730;37.818;2023-04-10T06:01:09;6.82;;;3.08;;
75154;SDS011;63735;44.730;37.818;2023-04-10T06:04:04;4.88;;;2.97;;
75154;SDS011;63735;44.730;37.818;2023-04-10T06:06:31;5.63;;;3.88;;
75154;SDS011;63735;44.730;37.818;2023-04-10T06:08:58;6.88;;;3.30;;
75154;SDS011;63735;44.730;37.818;2023-04-10T06:11:24;3.95;;;3.15;;
75154;SDS011;63735;44.730;37.818;2023-04-10T06:13:53;4.70;;;2.80;;
75154;SDS011;63735;44.730;37.818;2023-04-10T06:16:24;6.15;;;3.60;;
75154;SDS011;63735;44.730;37.818;2023-04-10T06:18:51;5.90;;;3.53;;
75154;SDS011;63735;44.730;37.818;2023-04-10T06:21:18;6.50;;;3.17;;
75154;SDS011;63735;44.730;37.818;2023-04-10T06:23:45;7.60;;;3.10;;
75154;SDS011;63735;44.730;37.818;2023-04-10T06:26:11;5.07;;;2.90;;
75154;SDS011;63735;44.730;37.818;2023-04-10T06:28:37;5.47;;;3.42;;
75154;SDS011;63735;44.730;37.818;2023-04-10T06:31:05;3.72;;;2.60;;
75154;SDS011;63735;44.730;37.818;2023-04-10T06:33:34;6.40;;;3.08;;
75154;SDS011;63735;44.730;37.818;2023-04-10T06:36:03;4.60;;;2.80;;
75154;SDS011;63735;44.730;37.818;2023-04-10T06:38:34;6.03;;;2.85;;
75154;SDS011;63735;44.730;37.818;2023-04-10T06:41:05;4.88;;;3.47;;
75154;SDS011;63735;44.730;37.818;2023-04-10T06:43:35;5.80;;;3.53;;
75154;SDS011;63735;44.730;37.818;2023-04-10T06:46:03;6.05;;;3.85;;
75154;SDS011;63735;44.730;37.818;2023-04-10T06:48:30;4.95;;;2.53;;
75154;SDS011;63735;44.730;37.818;2023-04-10T06:50:57;5.65;;;3.13;;
75154;SDS011;63735;44.730;37.818;2023-04-10T06:53:25;7.85;;;2.80;;
75154;SDS011;63735;44.730;37.818;2023-04-10T06:55:51;5.47;;;2.85;;
75154;SDS011;63735;44.730;37.818;2023-04-10T06:58:17;6.97;;;2.60;;
75154;SDS011;63735;44.730;37.818;2023-04-10T07:00:44;7.68;;;3.45;;
75154;SDS011;63735;44.730;37.818;2023-04-10T07:03:10;5.93;;;3.22;;
75154;SDS011;63735;44.730;37.818;2023-04-10T07:05:36;5.85;;;3.05;;
75154;SDS011;63735;44.730;37.818;2023-04-10T07:08:03;5.68;;;2.65;;
75154;SDS011;63735;44.730;37.818;2023-04-10T07:10:29;6.72;;;4.07;;
75154;SDS011;63735;44.730;37.818;2023-04-10T07:12:55;4.57;;;2.92;;
75154;SDS011;63735;44.730;37.818;2023-04-10T07:15:23;5.88;;;3.50;;
75154;SDS011;63735;44.730;37.818;2023-04-10T07:17:50;4.45;;;2.90;;
75154;SDS011;63735;44.730;37.818;2023-04-10T07:20:16;4.88;;;3.28;;
75154;SDS011;63735;44.730;37.818;2023-04-10T07:22:42;5.68;;;2.92;;
75154;SDS011;63735;44.730;37.818;2023-04-10T07:25:08;7.72;;;3.70;;
75154;SDS011;63735;44.730;37.818;2023-04-10T07:27:34;6.53;;;4.00;;
75154;SDS011;63735;44.730;37.818;2023-04-10T07:30:00;4.78;;;3.20;;
75154;SDS011;63735;44.730;37.818;2023-04-10T07:32:26;5.97;;;3.22;;
75154;SDS011;63735;44.730;37.818;2023-04-10T07:34:52;6.40;;;3.70;;
75154;SDS011;63735;44.730;37.818;2023-04-10T07:37:18;6.30;;;4.18;;
75154;SDS011;63735;44.730;37.818;2023-04-10T07:39:44;10.82;;;3.97;;
75154;SDS011;63735;44.730;37.818;2023-04-10T07:42:10;7.00;;;3.47;;
75154;SDS011;63735;44.730;37.818;2023-04-10T07:44:36;4.80;;;3.00;;
75154;SDS011;63735;44.730;37.818;2023-04-10T07:47:02;7.88;;;4.05;;
75154;SDS011;63735;44.730;37.818;2023-04-10T07:49:28;11.35;;;5.22;;
75154;SDS011;63735;44.730;37.818;2023-04-10T07:51:55;7.97;;;5.38;;
75154;SDS011;63735;44.730;37.818;2023-04-10T07:54:21;8.52;;;5.45;;
75154;SDS011;63735;44.730;37.818;2023-04-10T07:56:47;7.40;;;4.22;;
75154;SDS011;63735;44.730;37.818;2023-04-10T07:59:16;10.05;;;4.50;;
75154;SDS011;63735;44.730;37.818;2023-04-10T08:01:42;8.20;;;4.10;;
75154;SDS011;63735;44.730;37.818;2023-04-10T08:04:08;7.45;;;5.10;;
75154;SDS011;63735;44.730;37.818;2023-04-10T08:06:35;7.57;;;5.22;;
75154;SDS011;63735;44.730;37.818;2023-04-10T08:09:01;8.32;;;5.82;;
75154;SDS011;63735;44.730;37.818;2023-04-10T08:11:33;14.60;;;6.25;;
75154;SDS011;63735;44.730;37.818;2023-04-10T08:14:01;14.15;;;7.30;;
75154;SDS011;63735;44.730;37.818;2023-04-10T08:16:28;9.55;;;6.07;;
75154;SDS011;63735;44.730;37.818;2023-04-10T08:18:59;11.68;;;6.07;;
75154;SDS011;63735;44.730;37.818;2023-04-10T08:21:28;12.88;;;8.32;;
75154;SDS011;63735;44.730;37.818;2023-04-10T08:23:56;11.05;;;6.47;;
75154;SDS011;63735;44.730;37.818;2023-04-10T08:26:24;15.52;;;8.25;;
75154;SDS011;63735;44.730;37.818;2023-04-10T08:28:51;12.13;;;7.20;;
75154;SDS011;63735;44.730;37.818;2023-04-10T08:31:19;13.50;;;7.38;;
75154;SDS011;63735;44.730;37.818;2023-04-10T08:33:46;10.48;;;6.60;;
75154;SDS011;63735;44.730;37.818;2023-04-10T08:36:12;9.80;;;6.50;;
75154;SDS011;63735;44.730;37.818;2023-04-10T08:38:45;11.20;;;7.03;;
75154;SDS011;63735;44.730;37.818;2023-04-10T08:41:13;9.65;;;5.97;;
75154;SDS011;63735;44.730;37.818;2023-04-10T08:43:43;14.43;;;8.35;;
75154;SDS011;63735;44.730;37.818;2023-04-10T08:46:10;13.95;;;9.73;;
75154;SDS011;63735;44.730;37.818;2023-04-10T08:48:38;10.63;;;6.55;;
75154;SDS011;63735;44.730;37.818;2023-04-10T08:51:31;12.63;;;6.90;;
75154;SDS011;63735;44.730;37.818;2023-04-10T08:54:05;9.05;;;5.65;;
75154;SDS011;63735;44.730;37.818;2023-04-10T08:56:32;11.38;;;6.43;;
75154;SDS011;63735;44.730;37.818;2023-04-10T08:59:01;10.80;;;7.97;;
75154;SDS011;63735;44.730;37.818;2023-04-10T09:01:27;10.55;;;6.32;;
75154;SDS011;63735;44.730;37.818;2023-04-10T09:03:54;10.38;;;4.93;;
75154;SDS011;63735;44.730;37.818;2023-04-10T09:06:20;6.32;;;4.25;;
75154;SDS011;63735;44.730;37.818;2023-04-10T09:08:46;11.30;;;6.00;;
75154;SDS011;63735;44.730;37.818;2023-04-10T09:11:11;11.05;;;6.30;;
75154;SDS011;63735;44.730;37.818;2023-04-10T09:13:38;13.50;;;7.80;;
75154;SDS011;63735;44.730;37.818;2023-04-10T09:16:06;11.60;;;7.47;;
75154;SDS011;63735;44.730;37.818;2023-04-10T09:18:47;9.73;;;6.70;;
75154;SDS011;63735;44.730;37.818;2023-04-10T09:21:15;13.38;;;6.70;;
75154;SDS011;63735;44.730;37.818;2023-04-10T09:23:44;7.68;;;4.40;;
75154;SDS011;63735;44.730;37.818;2023-04-10T09:26:23;10.25;;;4.53;;
75154;SDS011;63735;44.730;37.818;2023-04-10T09:28:57;11.32;;;5.57;;
75154;SDS011;63735;44.730;37.818;2023-04-10T09:34:10;9.98;;;5.95;;
75154;SDS011;63735;44.730;37.818;2023-04-10T09:36:36;9.60;;;6.38;;
75154;SDS011;63735;44.730;37.818;2023-04-10T09:39:03;10.73;;;6.22;;
75154;SDS011;63735;44.730;37.818;2023-04-10T09:41:30;11.23;;;5.65;;
75154;SDS011;63735;44.730;37.818;2023-04-10T09:44:06;9.85;;;5.05;;
75154;SDS011;63735;44.730;37.818;2023-04-10T09:46:33;10.77;;;5.25;;
75154;SDS011;63735;44.730;37.818;2023-04-10T09:49:00;7.97;;;5.22;;
75154;SDS011;63735;44.730;37.818;2023-04-10T09:51:32;8.52;;;4.20;;
75154;SDS011;63735;44.730;37.818;2023-04-10T09:54:00;3.72;;;2.58;;
75154;SDS011;63735;44.730;37.818;2023-04-10T09:56:27;5.55;;;3.03;;
75154;SDS011;63735;44.730;37.818;2023-04-10T09:58:58;7.50;;;4.47;;
75154;SDS011;63735;44.730;37.818;2023-04-10T10:01:26;6.90;;;3.90;;
75154;SDS011;63735;44.730;37.818;2023-04-10T10:04:02;6.85;;;3.70;;
75154;SDS011;63735;44.730;37.818;2023-04-10T10:06:29;7.18;;;3.58;;
75154;SDS011;63735;44.730;37.818;2023-04-10T10:11:32;11.15;;;6.03;;
75154;SDS011;63735;44.730;37.818;2023-04-10T10:14:01;7.18;;;4.22;;
75154;SDS011;63735;44.730;37.818;2023-04-10T10:17:04;4.63;;;3.03;;
75154;SDS011;63735;44.730;37.818;2023-04-10T10:19:29;4.63;;;2.70;;
75154;SDS011;63735;44.730;37.818;2023-04-10T10:21:59;4.03;;;2.35;;
75154;SDS011;63735;44.730;37.818;2023-04-10T10:24:26;4.65;;;2.28;;
75154;SDS011;63735;44.730;37.818;2023-04-10T10:26:53;8.18;;;2.30;;
75154;SDS011;63735;44.730;37.818;2023-04-10T10:29:22;2.35;;;1.48;;
75154;SDS011;63735;44.730;37.818;2023-04-10T10:31:48;2.50;;;1.70;;
75154;SDS011;63735;44.730;37.818;2023-04-10T10:34:15;2.85;;;1.77;;
75154;SDS011;63735;44.730;37.818;2023-04-10T10:36:41;4.07;;;1.58;;
75154;SDS011;63735;44.730;37.818;2023-04-10T10:41:55;9.35;;;4.72;;
75154;SDS011;63735;44.730;37.818;2023-04-10T10:44:33;7.30;;;4.22;;
75154;SDS011;63735;44.730;37.818;2023-04-10T10:47:28;8.77;;;5.95;;
75154;SDS011;63735;44.730;37.818;2023-04-10T10:50:00;10.48;;;5.60;;
75154;SDS011;63735;44.730;37.818;2023-04-10T10:57:51;8.15;;;4.50;;
75154;SDS011;63735;44.730;37.818;2023-04-10T11:00:18;6.72;;;3.95;;
75154;SDS011;63735;44.730;37.818;2023-04-10T11:05:50;11.90;;;6.90;;
75154;SDS011;63735;44.730;37.818;2023-04-10T11:08:38;10.18;;;6.07;;
75154;SDS011;63735;44.730;37.818;2023-04-10T11:11:20;11.35;;;7.05;;
75154;SDS011;63735;44.730;37.818;2023-04-10T11:19:08;12.57;;;7.05;;
75154;SDS011;63735;44.730;37.818;2023-04-10T11:24:22;13.57;;;8.13;;
75154;SDS011;63735;44.730;37.818;2023-04-10T11:26:48;15.23;;;7.68;;
75154;SDS011;63735;44.730;37.818;2023-04-10T11:31:56;13.40;;;8.23;;
75154;SDS011;63735;44.730;37.818;2023-04-10T11:34:22;12.63;;;6.95;;
75154;SDS011;63735;44.730;37.818;2023-04-10T11:36:49;13.07;;;8.70;;
75154;SDS011;63735;44.730;37.818;2023-04-10T11:39:15;12.90;;;7.97;;
75154;SDS011;63735;44.730;37.818;2023-04-10T11:44:17;18.20;;;9.40;;
75154;SDS011;63735;44.730;37.818;2023-04-10T11:46:50;13.18;;;7.70;;
75154;SDS011;63735;44.730;37.818;2023-04-10T11:49:21;13.50;;;7.82;;
75154;SDS011;63735;44.730;37.818;2023-04-10T11:51:57;11.85;;;6.13;;
75154;SDS011;63735;44.730;37.818;2023-04-10T11:54:24;12.18;;;8.60;;
75154;SDS011;63735;44.730;37.818;2023-04-10T11:57:03;9.13;;;6.45;;
75154;SDS011;63735;44.730;37.818;2023-04-10T11:59:33;11.98;;;6.28;;
75154;SDS011;63735;44.730;37.818;2023-04-10T12:02:07;10.05;;;6.25;;
75154;SDS011;63735;44.730;37.818;2023-04-10T12:04:39;11.88;;;4.93;;
75154;SDS011;63735;44.730;37.818;2023-04-10T12:07:06;7.85;;;6.20;;
75154;SDS011;63735;44.730;37.818;2023-04-10T12:09:32;14.90;;;8.57;;
75154;SDS011;63735;44.730;37.818;2023-04-10T12:11:59;10.73;;;7.15;;
75154;SDS011;63735;44.730;37.818;2023-04-10T12:14:30;12.05;;;6.68;;
75154;SDS011;63735;44.730;37.818;2023-04-10T12:17:02;9.63;;;6.13;;
75154;SDS011;63735;44.730;37.818;2023-04-10T12:19:29;13.52;;;8.13;;
75154;SDS011;63735;44.730;37.818;2023-04-10T12:21:56;11.40;;;7.00;;
75154;SDS011;63735;44.730;37.818;2023-04-10T12:27:17;13.32;;;6.65;;
75154;SDS011;63735;44.730;37.818;2023-04-10T12:29:44;13.25;;;8.65;;
75154;SDS011;63735;44.730;37.818;2023-04-10T12:32:11;14.48;;;8.55;;
75154;SDS011;63735;44.730;37.818;2023-04-10T12:34:37;13.20;;;8.07;;
75154;SDS011;63735;44.730;37.818;2023-04-10T12:37:03;13.70;;;8.05;;
75154;SDS011;63735;44.730;37.818;2023-04-10T12:39:30;15.48;;;8.75;;
75154;SDS011;63735;44.730;37.818;2023-04-10T12:42:13;12.18;;;8.10;;
75154;SDS011;63735;44.730;37.818;2023-04-10T12:44:57;14.68;;;7.45;;
75154;SDS011;63735;44.730;37.818;2023-04-10T12:47:27;15.95;;;8.52;;
75154;SDS011;63735;44.730;37.818;2023-04-10T12:52:28;11.70;;;7.53;;
75154;SDS011;63735;44.730;37.818;2023-04-10T12:55:06;14.68;;;9.63;;
75154;SDS011;63735;44.730;37.818;2023-04-10T12:57:44;17.48;;;8.45;;
75154;SDS011;63735;44.730;37.818;2023-04-10T13:00:15;16.05;;;10.40;;
75154;SDS011;63735;44.730;37.818;2023-04-10T13:02:43;16.23;;;8.73;;
75154;SDS011;63735;44.730;37.818;2023-04-10T13:05:10;17.67;;;9.45;;
75154;SDS011;63735;44.730;37.818;2023-04-10T13:07:36;15.45;;;10.30;;
75154;SDS011;63735;44.730;37.818;2023-04-10T13:10:03;15.50;;;9.98;;
75154;SDS011;63735;44.730;37.818;2023-04-10T13:12:30;18.05;;;12.70;;
75154;SDS011;63735;44.730;37.818;2023-04-10T13:14:57;18.00;;;11.00;;
75154;SDS011;63735;44.730;37.818;2023-04-10T13:17:24;20.98;;;10.98;;
75154;SDS011;63735;44.730;37.818;2023-04-10T13:19:50;16.27;;;11.55;;
75154;SDS011;63735;44.730;37.818;2023-04-10T13:22:16;18.77;;;10.43;;
75154;SDS011;63735;44.730;37.818;2023-04-10T13:24:43;16.02;;;12.57;;
75154;SDS011;63735;44.730;37.818;2023-04-10T13:27:09;15.98;;;9.75;;
75154;SDS011;63735;44.730;37.818;2023-04-10T13:29:37;12.45;;;8.20;;
75154;SDS011;63735;44.730;37.818;2023-04-10T13:32:05;16.65;;;10.00;;
75154;SDS011;63735;44.730;37.818;2023-04-10T13:34:31;16.30;;;10.15;;
75154;SDS011;63735;44.730;37.818;2023-04-10T13:36:57;18.02;;;10.95;;
75154;SDS011;63735;44.730;37.818;2023-04-10T13:39:27;16.35;;;9.88;;
75154;SDS011;63735;44.730;37.818;2023-04-10T13:41:54;15.95;;;9.80;;
75154;SDS011;63735;44.730;37.818;2023-04-10T13:44:21;17.80;;;10.30;;
75154;SDS011;63735;44.730;37.818;2023-04-10T13:46:47;19.88;;;11.63;;
75154;SDS011;63735;44.730;37.818;2023-04-10T13:49:13;15.38;;;10.63;;
75154;SDS011;63735;44.730;37.818;2023-04-10T13:51:43;15.75;;;9.40;;
75154;SDS011;63735;44.730;37.818;2023-04-10T13:54:09;14.95;;;9.40;;
75154;SDS011;63735;44.730;37.818;2023-04-10T13:56:36;14.63;;;10.25;;
75154;SDS011;63735;44.730;37.818;2023-04-10T13:59:03;16.25;;;9.32;;
75154;SDS011;63735;44.730;37.818;2023-04-10T14:01:29;15.85;;;10.75;;
75154;SDS011;63735;44.730;37.818;2023-04-10T14:03:55;16.90;;;9.30;;
75154;SDS011;63735;44.730;37.818;2023-04-10T14:06:21;15.68;;;10.73;;
75154;SDS011;63735;44.730;37.818;2023-04-10T14:08:47;16.77;;;9.48;;
75154;SDS011;63735;44.730;37.818;2023-04-10T14:11:14;18.25;;;8.95;;
75154;SDS011;63735;44.730;37.818;2023-04-10T14:13:40;18.17;;;10.93;;
75154;SDS011;63735;44.730;37.818;2023-04-10T14:16:06;16.42;;;8.60;;
75154;SDS011;63735;44.730;37.818;2023-04-10T14:18:32;19.58;;;10.75;;
75154;SDS011;63735;44.730;37.818;2023-04-10T14:20:58;15.95;;;10.15;;
75154;SDS011;63735;44.730;37.818;2023-04-10T14:23:24;16.20;;;9.75;;
75154;SDS011;63735;44.730;37.818;2023-04-10T14:25:50;16.20;;;8.90;;
75154;SDS011;63735;44.730;37.818;2023-04-10T14:28:16;14.68;;;9.38;;
75154;SDS011;63735;44.730;37.818;2023-04-10T14:30:43;18.30;;;9.60;;
75154;SDS011;63735;44.730;37.818;2023-04-10T14:33:10;18.05;;;9.93;;
75154;SDS011;63735;44.730;37.818;2023-04-10T14:35:36;14.10;;;8.43;;
75154;SDS011;63735;44.730;37.818;2023-04-10T14:38:03;17.05;;;9.50;;
75154;SDS011;63735;44.730;37.818;2023-04-10T14:40:29;17.55;;;7.88;;
75154;SDS011;63735;44.730;37.818;2023-04-10T14:42:55;15.90;;;8.82;;
75154;SDS011;63735;44.730;37.818;2023-04-10T14:45:21;15.20;;;7.78;;
75154;SDS011;63735;44.730;37.818;2023-04-10T14:47:47;14.52;;;8.50;;
75154;SDS011;63735;44.730;37.818;2023-04-10T14:50:13;13.30;;;7.03;;
75154;SDS011;63735;44.730;37.818;2023-04-10T14:52:39;13.80;;;9.18;;
75154;SDS011;63735;44.730;37.818;2023-04-10T14:55:05;12.63;;;6.40;;
75154;SDS011;63735;44.730;37.818;2023-04-10T14:57:31;16.25;;;9.32;;
75154;SDS011;63735;44.730;37.818;2023-04-10T14:59:57;13.80;;;9.25;;
75154;SDS011;63735;44.730;37.818;2023-04-10T15:02:25;16.55;;;8.82;;
75154;SDS011;63735;44.730;37.818;2023-04-10T15:04:51;16.65;;;7.13;;
75154;SDS011;63735;44.730;37.818;2023-04-10T15:07:17;21.98;;;9.98;;
75154;SDS011;63735;44.730;37.818;2023-04-10T15:09:43;15.05;;;8.38;;
75154;SDS011;63735;44.730;37.818;2023-04-10T15:12:10;17.85;;;9.60;;
75154;SDS011;63735;44.730;37.818;2023-04-10T15:14:36;15.98;;;9.02;;
75154;SDS011;63735;44.730;37.818;2023-04-10T15:17:02;18.73;;;8.85;;
75154;SDS011;63735;44.730;37.818;2023-04-10T15:19:28;14.73;;;9.50;;
75154;SDS011;63735;44.730;37.818;2023-04-10T15:21:55;14.07;;;7.55;;
75154;SDS011;63735;44.730;37.818;2023-04-10T15:24:21;14.55;;;8.05;;
75154;SDS011;63735;44.730;37.818;2023-04-10T15:26:47;15.85;;;7.18;;
75154;SDS011;63735;44.730;37.818;2023-04-10T15:29:13;13.25;;;6.28;;
75154;SDS011;63735;44.730;37.818;2023-04-10T15:31:39;17.05;;;7.78;;